sensor_id;sensor_type;location;lat;lon;timestamp;pressure;altitude;pressure_sealevel;temperature;humidity
42125;BME280;27787;44.594;11.046;2023-07-16T00:00:53;100825.94;;;27.94;75.85
42125;BME280;27787;44.594;11.046;2023-07-16T00:03:37;100829.13;;;27.86;75.93
42125;BME280;27787;44.594;11.046;2023-07-16T00:06:22;100834.09;;;27.80;76.09
42125;BME280;27787;44.594;11.046;2023-07-16T00:09:06;100836.22;;;27.75;76.19
42125;BME280;27787;44.594;11.046;2023-07-16T00:11:50;100835.91;;;27.79;76.12
42125;BME280;27787;44.594;11.046;2023-07-16T00:14:33;100839.19;;;27.84;75.19
42125;BME280;27787;44.594;11.046;2023-07-16T00:17:18;100839.91;;;27.88;73.21
42125;BME280;27787;44.594;11.046;2023-07-16T00:20:03;100842.88;;;27.98;71.17
42125;BME280;27787;44.594;11.046;2023-07-16T00:22:48;100844.56;;;28.00;70.38
42125;BME280;27787;44.594;11.046;2023-07-16T00:25:32;100843.47;;;28.03;70.47
42125;BME280;27787;44.594;11.046;2023-07-16T00:28:18;100838.25;;;28.00;70.32
42125;BME280;27787;44.594;11.046;2023-07-16T00:31:03;100846.47;;;27.98;70.68
42125;BME280;27787;44.594;11.046;2023-07-16T00:33:47;100846.38;;;27.85;72.86
42125;BME280;27787;44.594;11.046;2023-07-16T00:36:32;100842.53;;;27.75;73.93
42125;BME280;27787;44.594;11.046;2023-07-16T00:39:16;100842.03;;;27.69;74.24
42125;BME280;27787;44.594;11.046;2023-07-16T00:42:00;100836.09;;;27.62;74.50
42125;BME280;27787;44.594;11.046;2023-07-16T00:44:45;100837.41;;;27.55;74.65
42125;BME280;27787;44.594;11.046;2023-07-16T00:47:30;100835.28;;;27.46;74.78
42125;BME280;27787;44.594;11.046;2023-07-16T00:50:14;100848.34;;;27.39;74.60
42125;BME280;27787;44.594;11.046;2023-07-16T00:52:58;100836.72;;;27.37;74.75
42125;BME280;27787;44.594;11.046;2023-07-16T00:55:42;100836.53;;;27.40;74.51
42125;BME280;27787;44.594;11.046;2023-07-16T00:58:27;100838.09;;;27.44;73.86
42125;BME280;27787;44.594;11.046;2023-07-16T01:01:13;100841.97;;;27.40;73.72
42125;BME280;27787;44.594;11.046;2023-07-16T01:03:57;100838.25;;;27.27;74.59
42125;BME280;27787;44.594;11.046;2023-07-16T01:06:45;100836.97;;;27.18;75.33
42125;BME280;27787;44.594;11.046;2023-07-16T01:09:30;100839.47;;;27.21;75.19
42125;BME280;27787;44.594;11.046;2023-07-16T01:12:19;100836.78;;;27.21;75.67
42125;BME280;27787;44.594;11.046;2023-07-16T01:15:05;100836.41;;;27.27;75.62
42125;BME280;27787;44.594;11.046;2023-07-16T01:17:49;100832.72;;;27.28;75.82
42125;BME280;27787;44.594;11.046;2023-07-16T01:20:33;100830.13;;;27.27;76.30
42125;BME280;27787;44.594;11.046;2023-07-16T01:32:25;100839.44;;;27.07;76.10
42125;BME280;27787;44.594;11.046;2023-07-16T01:35:10;100834.22;;;27.04;74.73
42125;BME280;27787;44.594;11.046;2023-07-16T01:37:54;100824.84;;;26.94;73.64
42125;BME280;27787;44.594;11.046;2023-07-16T01:40:38;100836.66;;;26.93;73.86
42125;BME280;27787;44.594;11.046;2023-07-16T01:43:23;100845.84;;;26.90;73.17
42125;BME280;27787;44.594;11.046;2023-07-16T01:46:07;100841.59;;;26.86;73.65
42125;BME280;27787;44.594;11.046;2023-07-16T01:48:51;100844.53;;;26.82;73.28
42125;BME280;27787;44.594;11.046;2023-07-16T01:51:35;100837.38;;;26.81;72.78
42125;BME280;27787;44.594;11.046;2023-07-16T01:54:19;100837.22;;;26.84;73.23
42125;BME280;27787;44.594;11.046;2023-07-16T01:57:03;100832.69;;;26.84;73.87
42125;BME280;27787;44.594;11.046;2023-07-16T01:59:47;100842.69;;;26.82;73.82
42125;BME280;27787;44.594;11.046;2023-07-16T02:02:31;100833.78;;;26.80;73.69
42125;BME280;27787;44.594;11.046;2023-07-16T02:05:16;100836.69;;;26.77;73.30
42125;BME280;27787;44.594;11.046;2023-07-16T02:08:00;100834.47;;;26.69;72.79
42125;BME280;27787;44.594;11.046;2023-07-16T02:10:47;100832.53;;;26.56;72.12
42125;BME280;27787;44.594;11.046;2023-07-16T02:13:31;100822.84;;;26.52;72.32
42125;BME280;27787;44.594;11.046;2023-07-16T02:16:16;100829.66;;;26.59;71.66
42125;BME280;27787;44.594;11.046;2023-07-16T02:19:00;100829.19;;;26.66;70.75
42125;BME280;27787;44.594;11.046;2023-07-16T02:21:44;100818.38;;;26.66;70.58
42125;BME280;27787;44.594;11.046;2023-07-16T02:24:28;100817.50;;;26.66;70.24
42125;BME280;27787;44.594;11.046;2023-07-16T02:27:12;100828.41;;;26.64;70.21
42125;BME280;27787;44.594;11.046;2023-07-16T02:29:57;100824.06;;;26.62;70.65
42125;BME280;27787;44.594;11.046;2023-07-16T02:32:42;100828.69;;;26.60;70.64
42125;BME280;27787;44.594;11.046;2023-07-16T02:35:26;100829.03;;;26.54;70.80
42125;BME280;27787;44.594;11.046;2023-07-16T02:38:10;100832.88;;;26.50;70.63
42125;BME280;27787;44.594;11.046;2023-07-16T02:40:54;100829.03;;;26.54;70.91
42125;BME280;27787;44.594;11.046;2023-07-16T02:43:38;100827.72;;;26.61;71.28
42125;BME280;27787;44.594;11.046;2023-07-16T02:46:23;100829.97;;;26.68;71.41
42125;BME280;27787;44.594;11.046;2023-07-16T02:49:07;100836.19;;;26.70;72.12
42125;BME280;27787;44.594;11.046;2023-07-16T02:51:51;100833.41;;;26.72;72.91
42125;BME280;27787;44.594;11.046;2023-07-16T02:54:36;100836.19;;;26.70;73.06
42125;BME280;27787;44.594;11.046;2023-07-16T02:57:21;100838.38;;;26.64;73.40
42125;BME280;27787;44.594;11.046;2023-07-16T03:00:07;100844.94;;;26.60;73.72
42125;BME280;27787;44.594;11.046;2023-07-16T03:02:51;100848.00;;;26.54;74.02
42125;BME280;27787;44.594;11.046;2023-07-16T03:05:36;100856.38;;;26.49;73.54
42125;BME280;27787;44.594;11.046;2023-07-16T03:08:20;100857.69;;;26.42;72.47
42125;BME280;27787;44.594;11.046;2023-07-16T03:11:03;100851.81;;;26.34;71.83
42125;BME280;27787;44.594;11.046;2023-07-16T03:13:49;100850.75;;;26.21;72.23
42125;BME280;27787;44.594;11.046;2023-07-16T03:16:33;100842.97;;;26.14;71.25
42125;BME280;27787;44.594;11.046;2023-07-16T03:19:17;100852.84;;;26.15;71.18
42125;BME280;27787;44.594;11.046;2023-07-16T03:22:02;100859.31;;;26.13;71.24
42125;BME280;27787;44.594;11.046;2023-07-16T03:24:47;100864.34;;;26.03;72.02
42125;BME280;27787;44.594;11.046;2023-07-16T03:27:31;100860.84;;;26.01;71.80
42125;BME280;27787;44.594;11.046;2023-07-16T03:30:18;100854.38;;;26.04;71.25
42125;BME280;27787;44.594;11.046;2023-07-16T03:33:02;100859.56;;;26.08;70.87
42125;BME280;27787;44.594;11.046;2023-07-16T03:35:47;100855.28;;;26.04;70.91
42125;BME280;27787;44.594;11.046;2023-07-16T03:38:31;100854.19;;;25.91;71.05
42125;BME280;27787;44.594;11.046;2023-07-16T03:41:15;100860.22;;;25.80;71.43
42125;BME280;27787;44.594;11.046;2023-07-16T03:43:59;100864.28;;;25.72;71.76
42125;BME280;27787;44.594;11.046;2023-07-16T03:46:44;100867.22;;;25.67;71.03
42125;BME280;27787;44.594;11.046;2023-07-16T03:49:29;100856.97;;;25.56;71.06
42125;BME280;27787;44.594;11.046;2023-07-16T03:52:14;100865.25;;;25.53;70.57
42125;BME280;27787;44.594;11.046;2023-07-16T03:54:59;100865.84;;;25.58;69.32
42125;BME280;27787;44.594;11.046;2023-07-16T03:57:43;100866.47;;;25.64;70.49
42125;BME280;27787;44.594;11.046;2023-07-16T04:00:28;100867.53;;;25.61;70.37
42125;BME280;27787;44.594;11.046;2023-07-16T04:03:12;100860.94;;;25.49;71.62
42125;BME280;27787;44.594;11.046;2023-07-16T04:06:03;100861.28;;;25.43;71.82
42125;BME280;27787;44.594;11.046;2023-07-16T04:08:48;100858.31;;;25.48;71.53
42125;BME280;27787;44.594;11.046;2023-07-16T04:11:33;100858.09;;;25.52;71.88
42125;BME280;27787;44.594;11.046;2023-07-16T04:14:17;100857.91;;;25.55;71.93
42125;BME280;27787;44.594;11.046;2023-07-16T04:17:02;100855.03;;;25.58;71.91
42125;BME280;27787;44.594;11.046;2023-07-16T04:19:46;100863.69;;;25.65;72.01
42125;BME280;27787;44.594;11.046;2023-07-16T04:22:30;100859.66;;;25.74;72.09
42125;BME280;27787;44.594;11.046;2023-07-16T04:25:14;100865.75;;;25.77;71.65
42125;BME280;27787;44.594;11.046;2023-07-16T04:27:59;100873.00;;;25.77;71.93
42125;BME280;27787;44.594;11.046;2023-07-16T04:30:43;100877.63;;;25.75;72.10
42125;BME280;27787;44.594;11.046;2023-07-16T04:33:27;100868.47;;;25.60;72.45
42125;BME280;27787;44.594;11.046;2023-07-16T04:36:10;100870.00;;;25.48;71.49
42125;BME280;27787;44.594;11.046;2023-07-16T04:38:55;100874.00;;;25.41;70.14
42125;BME280;27787;44.594;11.046;2023-07-16T04:41:39;100870.16;;;25.45;69.50
42125;BME280;27787;44.594;11.046;2023-07-16T04:44:23;100885.44;;;25.46;68.06
42125;BME280;27787;44.594;11.046;2023-07-16T04:47:08;100883.06;;;25.40;67.78
42125;BME280;27787;44.594;11.046;2023-07-16T04:49:52;100873.34;;;25.36;67.07
42125;BME280;27787;44.594;11.046;2023-07-16T04:52:37;100873.50;;;25.33;67.52
42125;BME280;27787;44.594;11.046;2023-07-16T04:55:21;100873.44;;;25.35;67.60
42125;BME280;27787;44.594;11.046;2023-07-16T04:58:06;100875.19;;;25.36;67.36
42125;BME280;27787;44.594;11.046;2023-07-16T05:00:50;100870.56;;;25.38;66.77
42125;BME280;27787;44.594;11.046;2023-07-16T05:03:35;100873.13;;;25.41;66.26
42125;BME280;27787;44.594;11.046;2023-07-16T05:06:19;100873.56;;;25.49;66.19
42125;BME280;27787;44.594;11.046;2023-07-16T05:09:04;100874.13;;;25.55;66.21
42125;BME280;27787;44.594;11.046;2023-07-16T05:11:48;100881.13;;;25.59;66.14
42125;BME280;27787;44.594;11.046;2023-07-16T05:14:43;100882.47;;;25.51;67.02
42125;BME280;27787;44.594;11.046;2023-07-16T05:17:27;100888.94;;;25.48;67.75
42125;BME280;27787;44.594;11.046;2023-07-16T05:20:11;100884.47;;;25.47;67.67
42125;BME280;27787;44.594;11.046;2023-07-16T05:22:56;100875.56;;;25.45;67.67
42125;BME280;27787;44.594;11.046;2023-07-16T05:25:48;100880.28;;;25.42;68.10
42125;BME280;27787;44.594;11.046;2023-07-16T05:28:33;100880.41;;;25.39;68.95
42125;BME280;27787;44.594;11.046;2023-07-16T05:31:17;100881.25;;;25.41;69.43
42125;BME280;27787;44.594;11.046;2023-07-16T05:34:02;100883.84;;;25.42;69.75
42125;BME280;27787;44.594;11.046;2023-07-16T05:36:46;100889.09;;;25.45;69.84
42125;BME280;27787;44.594;11.046;2023-07-16T05:39:30;100887.00;;;25.50;69.51
42125;BME280;27787;44.594;11.046;2023-07-16T05:42:14;100888.19;;;25.62;69.90
42125;BME280;27787;44.594;11.046;2023-07-16T05:44:59;100893.06;;;25.73;70.22
42125;BME280;27787;44.594;11.046;2023-07-16T05:47:42;100896.34;;;25.79;70.22
42125;BME280;27787;44.594;11.046;2023-07-16T05:50:27;100900.53;;;25.85;70.25
42125;BME280;27787;44.594;11.046;2023-07-16T05:53:11;100897.72;;;25.86;70.38
42125;BME280;27787;44.594;11.046;2023-07-16T05:55:55;100899.47;;;25.87;70.88
42125;BME280;27787;44.594;11.046;2023-07-16T05:58:41;100901.97;;;25.92;71.33
42125;BME280;27787;44.594;11.046;2023-07-16T06:01:25;100895.50;;;25.95;71.35
42125;BME280;27787;44.594;11.046;2023-07-16T06:04:09;100894.38;;;25.99;70.90
42125;BME280;27787;44.594;11.046;2023-07-16T06:06:53;100904.00;;;26.04;70.58
42125;BME280;27787;44.594;11.046;2023-07-16T06:09:37;100899.81;;;26.14;69.79
42125;BME280;27787;44.594;11.046;2023-07-16T06:12:21;100904.91;;;26.21;69.20
42125;BME280;27787;44.594;11.046;2023-07-16T06:15:06;100900.88;;;26.28;68.43
42125;BME280;27787;44.594;11.046;2023-07-16T06:17:50;100901.38;;;26.36;67.69
42125;BME280;27787;44.594;11.046;2023-07-16T06:20:34;100908.25;;;26.41;67.04
42125;BME280;27787;44.594;11.046;2023-07-16T06:23:18;100898.75;;;26.50;66.32
42125;BME280;27787;44.594;11.046;2023-07-16T06:26:02;100897.19;;;26.62;67.01
42125;BME280;27787;44.594;11.046;2023-07-16T06:28:46;100895.78;;;26.70;66.69
42125;BME280;27787;44.594;11.046;2023-07-16T06:31:33;100898.03;;;26.78;67.06
42125;BME280;27787;44.594;11.046;2023-07-16T06:34:18;100895.09;;;26.83;65.83
42125;BME280;27787;44.594;11.046;2023-07-16T06:37:02;100896.34;;;26.91;65.33
42125;BME280;27787;44.594;11.046;2023-07-16T06:39:46;100890.41;;;27.00;64.59
42125;BME280;27787;44.594;11.046;2023-07-16T06:42:30;100891.91;;;27.06;64.40
42125;BME280;27787;44.594;11.046;2023-07-16T06:45:17;100894.47;;;27.09;64.44
42125;BME280;27787;44.594;11.046;2023-07-16T06:48:02;100901.25;;;27.16;64.23
42125;BME280;27787;44.594;11.046;2023-07-16T06:50:46;100902.63;;;27.23;63.58
42125;BME280;27787;44.594;11.046;2023-07-16T06:53:30;100893.44;;;27.26;62.56
42125;BME280;27787;44.594;11.046;2023-07-16T06:56:15;100894.22;;;27.28;60.52
42125;BME280;27787;44.594;11.046;2023-07-16T06:58:59;100892.09;;;27.33;59.74
42125;BME280;27787;44.594;11.046;2023-07-16T07:01:43;100888.16;;;27.39;59.74
42125;BME280;27787;44.594;11.046;2023-07-16T07:04:27;100903.06;;;27.46;60.52
42125;BME280;27787;44.594;11.046;2023-07-16T07:07:11;100902.72;;;27.52;61.34
42125;BME280;27787;44.594;11.046;2023-07-16T07:09:55;100897.09;;;27.55;61.52
42125;BME280;27787;44.594;11.046;2023-07-16T07:12:40;100897.88;;;27.57;61.29
42125;BME280;27787;44.594;11.046;2023-07-16T07:15:24;100898.63;;;27.59;61.77
42125;BME280;27787;44.594;11.046;2023-07-16T07:18:08;100898.53;;;27.60;61.39
42125;BME280;27787;44.594;11.046;2023-07-16T07:20:53;100900.06;;;27.66;61.65
42125;BME280;27787;44.594;11.046;2023-07-16T07:23:36;100900.81;;;27.68;61.83
42125;BME280;27787;44.594;11.046;2023-07-16T07:26:20;100904.13;;;27.73;63.89
42125;BME280;27787;44.594;11.046;2023-07-16T07:29:05;100891.16;;;27.78;66.47
42125;BME280;27787;44.594;11.046;2023-07-16T07:31:50;100899.97;;;27.82;67.17
42125;BME280;27787;44.594;11.046;2023-07-16T07:34:34;100887.06;;;27.85;66.45
42125;BME280;27787;44.594;11.046;2023-07-16T07:37:18;100903.00;;;27.91;66.89
42125;BME280;27787;44.594;11.046;2023-07-16T07:40:03;100906.47;;;27.94;66.56
42125;BME280;27787;44.594;11.046;2023-07-16T07:42:47;100903.97;;;27.90;65.97
42125;BME280;27787;44.594;11.046;2023-07-16T07:45:32;100901.44;;;27.87;66.23
42125;BME280;27787;44.594;11.046;2023-07-16T07:48:16;100909.38;;;27.90;66.93
42125;BME280;27787;44.594;11.046;2023-07-16T07:51:00;100910.94;;;27.95;68.79
42125;BME280;27787;44.594;11.046;2023-07-16T07:53:44;100905.19;;;27.99;68.60
42125;BME280;27787;44.594;11.046;2023-07-16T07:56:28;100911.44;;;28.01;68.96
42125;BME280;27787;44.594;11.046;2023-07-16T07:59:12;100903.09;;;28.04;69.16
42125;BME280;27787;44.594;11.046;2023-07-16T08:01:57;100907.56;;;28.05;69.69
42125;BME280;27787;44.594;11.046;2023-07-16T08:04:42;100909.97;;;28.10;71.07
42125;BME280;27787;44.594;11.046;2023-07-16T08:07:26;100909.69;;;28.14;70.35
42125;BME280;27787;44.594;11.046;2023-07-16T08:10:11;100911.22;;;28.18;68.54
42125;BME280;27787;44.594;11.046;2023-07-16T08:12:54;100917.13;;;28.25;65.79
42125;BME280;27787;44.594;11.046;2023-07-16T08:15:39;100913.31;;;28.29;66.12
42125;BME280;27787;44.594;11.046;2023-07-16T08:18:23;100921.34;;;28.31;67.48
42125;BME280;27787;44.594;11.046;2023-07-16T08:21:07;100920.84;;;28.38;66.95
42125;BME280;27787;44.594;11.046;2023-07-16T08:23:52;100908.63;;;28.45;66.58
42125;BME280;27787;44.594;11.046;2023-07-16T08:26:36;100927.16;;;28.53;66.57
42125;BME280;27787;44.594;11.046;2023-07-16T08:29:19;100921.97;;;28.63;63.16
42125;BME280;27787;44.594;11.046;2023-07-16T08:32:04;100925.28;;;28.68;62.33
42125;BME280;27787;44.594;11.046;2023-07-16T08:34:48;100925.22;;;28.82;65.71
42125;BME280;27787;44.594;11.046;2023-07-16T08:37:32;100924.84;;;28.88;63.30
42125;BME280;27787;44.594;11.046;2023-07-16T08:40:16;100924.91;;;28.87;64.46
42125;BME280;27787;44.594;11.046;2023-07-16T08:43:01;100922.13;;;28.88;65.19
42125;BME280;27787;44.594;11.046;2023-07-16T08:45:48;100940.16;;;28.89;66.40
42125;BME280;27787;44.594;11.046;2023-07-16T08:48:33;100929.19;;;28.91;66.31
42125;BME280;27787;44.594;11.046;2023-07-16T08:51:19;100925.44;;;28.93;65.63
42125;BME280;27787;44.594;11.046;2023-07-16T08:54:04;100936.97;;;28.97;64.88
42125;BME280;27787;44.594;11.046;2023-07-16T08:56:49;100931.56;;;29.10;65.63
42125;BME280;27787;44.594;11.046;2023-07-16T08:59:34;100925.81;;;29.14;64.84
42125;BME280;27787;44.594;11.046;2023-07-16T09:02:19;100922.81;;;29.19;65.90
42125;BME280;27787;44.594;11.046;2023-07-16T09:05:04;100923.56;;;29.21;64.55
42125;BME280;27787;44.594;11.046;2023-07-16T09:07:49;100927.91;;;29.23;65.14
42125;BME280;27787;44.594;11.046;2023-07-16T09:10:33;100918.78;;;29.24;65.73
42125;BME280;27787;44.594;11.046;2023-07-16T09:13:18;100920.84;;;29.21;65.78
42125;BME280;27787;44.594;11.046;2023-07-16T09:16:02;100927.81;;;29.25;64.65
42125;BME280;27787;44.594;11.046;2023-07-16T09:18:47;100926.31;;;29.33;63.87
42125;BME280;27787;44.594;11.046;2023-07-16T09:21:31;100929.25;;;29.30;64.75
42125;BME280;27787;44.594;11.046;2023-07-16T09:24:19;100928.69;;;29.25;65.16
42125;BME280;27787;44.594;11.046;2023-07-16T09:27:03;100933.72;;;29.31;66.31
42125;BME280;27787;44.594;11.046;2023-07-16T09:29:47;100933.59;;;29.33;65.79
42125;BME280;27787;44.594;11.046;2023-07-16T09:32:38;100922.50;;;29.36;67.08
42125;BME280;27787;44.594;11.046;2023-07-16T09:35:26;100925.22;;;29.36;67.61
42125;BME280;27787;44.594;11.046;2023-07-16T09:38:10;100928.78;;;29.51;67.97
42125;BME280;27787;44.594;11.046;2023-07-16T09:40:55;100932.84;;;29.58;66.67
42125;BME280;27787;44.594;11.046;2023-07-16T09:43:40;100925.66;;;29.57;66.16
42125;BME280;27787;44.594;11.046;2023-07-16T09:46:25;100933.03;;;29.55;65.78
42125;BME280;27787;44.594;11.046;2023-07-16T09:49:09;100934.09;;;29.52;64.83
42125;BME280;27787;44.594;11.046;2023-07-16T09:51:55;100935.84;;;29.53;64.50
42125;BME280;27787;44.594;11.046;2023-07-16T09:54:40;100936.81;;;29.52;64.74
42125;BME280;27787;44.594;11.046;2023-07-16T09:57:26;100934.88;;;29.54;64.37
42125;BME280;27787;44.594;11.046;2023-07-16T10:00:13;100930.75;;;29.61;60.96
42125;BME280;27787;44.594;11.046;2023-07-16T10:03:00;100923.81;;;29.70;57.55
42125;BME280;27787;44.594;11.046;2023-07-16T10:05:44;100927.72;;;29.79;57.37
42125;BME280;27787;44.594;11.046;2023-07-16T10:08:33;100935.66;;;29.82;57.90
42125;BME280;27787;44.594;11.046;2023-07-16T10:11:20;100936.75;;;29.92;57.46
42125;BME280;27787;44.594;11.046;2023-07-16T10:14:04;100928.59;;;29.92;57.38
42125;BME280;27787;44.594;11.046;2023-07-16T10:16:48;100926.56;;;29.95;57.34
42125;BME280;27787;44.594;11.046;2023-07-16T10:19:59;100925.34;;;30.00;58.10
42125;BME280;27787;44.594;11.046;2023-07-16T10:22:46;100925.97;;;30.03;57.50
42125;BME280;27787;44.594;11.046;2023-07-16T10:25:31;100927.75;;;30.17;55.31
42125;BME280;27787;44.594;11.046;2023-07-16T10:28:14;100923.78;;;30.34;57.61
42125;BME280;27787;44.594;11.046;2023-07-16T10:31:00;100924.78;;;30.33;57.35
42125;BME280;27787;44.594;11.046;2023-07-16T10:33:44;100915.22;;;30.27;58.07
42125;BME280;27787;44.594;11.046;2023-07-16T10:36:28;100922.16;;;30.31;60.73
42125;BME280;27787;44.594;11.046;2023-07-16T10:39:15;100916.94;;;30.41;62.78
42125;BME280;27787;44.594;11.046;2023-07-16T10:41:59;100923.13;;;30.43;63.70
42125;BME280;27787;44.594;11.046;2023-07-16T10:44:43;100916.16;;;30.51;63.22
42125;BME280;27787;44.594;11.046;2023-07-16T10:47:35;100925.94;;;30.54;63.08
42125;BME280;27787;44.594;11.046;2023-07-16T10:50:20;100935.09;;;30.53;62.61
42125;BME280;27787;44.594;11.046;2023-07-16T10:53:07;100930.75;;;30.50;60.75
42125;BME280;27787;44.594;11.046;2023-07-16T10:55:51;100931.72;;;30.62;60.00
42125;BME280;27787;44.594;11.046;2023-07-16T10:58:37;100928.03;;;30.63;59.42
42125;BME280;27787;44.594;11.046;2023-07-16T11:01:21;100923.22;;;30.67;57.82
42125;BME280;27787;44.594;11.046;2023-07-16T11:04:09;100919.94;;;30.62;58.77
42125;BME280;27787;44.594;11.046;2023-07-16T11:06:53;100918.41;;;30.58;57.59
42125;BME280;27787;44.594;11.046;2023-07-16T11:09:53;100916.56;;;30.58;56.96
42125;BME280;27787;44.594;11.046;2023-07-16T11:12:38;100922.59;;;30.63;55.94
42125;BME280;27787;44.594;11.046;2023-07-16T11:15:32;100922.50;;;30.89;52.75
42125;BME280;27787;44.594;11.046;2023-07-16T11:18:17;100921.16;;;30.94;51.60
42125;BME280;27787;44.594;11.046;2023-07-16T11:21:03;100913.53;;;30.99;52.10
42125;BME280;27787;44.594;11.046;2023-07-16T11:23:47;100913.09;;;30.93;51.11
42125;BME280;27787;44.594;11.046;2023-07-16T11:26:31;100911.81;;;30.86;50.58
42125;BME280;27787;44.594;11.046;2023-07-16T11:29:15;100909.56;;;30.79;50.97
42125;BME280;27787;44.594;11.046;2023-07-16T11:31:59;100901.59;;;30.76;49.98
42125;BME280;27787;44.594;11.046;2023-07-16T11:34:54;100905.31;;;30.75;49.62
42125;BME280;27787;44.594;11.046;2023-07-16T11:37:39;100901.06;;;30.71;47.70
42125;BME280;27787;44.594;11.046;2023-07-16T11:40:24;100897.25;;;30.74;47.60
42125;BME280;27787;44.594;11.046;2023-07-16T11:43:10;100900.50;;;30.79;48.24
42125;BME280;27787;44.594;11.046;2023-07-16T11:45:54;100896.78;;;30.80;47.61
42125;BME280;27787;44.594;11.046;2023-07-16T11:48:38;100887.38;;;30.84;47.77
42125;BME280;27787;44.594;11.046;2023-07-16T11:51:22;100892.50;;;30.89;47.10
42125;BME280;27787;44.594;11.046;2023-07-16T11:54:06;100882.34;;;30.91;46.72
42125;BME280;27787;44.594;11.046;2023-07-16T11:56:50;100880.00;;;30.97;47.21
42125;BME280;27787;44.594;11.046;2023-07-16T11:59:34;100873.88;;;31.06;48.34
42125;BME280;27787;44.594;11.046;2023-07-16T12:02:19;100874.28;;;31.13;48.51
42125;BME280;27787;44.594;11.046;2023-07-16T12:05:04;100872.06;;;31.18;47.86
42125;BME280;27787;44.594;11.046;2023-07-16T12:07:48;100869.97;;;31.22;47.92
42125;BME280;27787;44.594;11.046;2023-07-16T12:10:32;100861.94;;;31.20;47.54
42125;BME280;27787;44.594;11.046;2023-07-16T12:13:16;100858.81;;;31.25;48.31
42125;BME280;27787;44.594;11.046;2023-07-16T12:16:01;100852.16;;;31.29;47.58
42125;BME280;27787;44.594;11.046;2023-07-16T12:18:46;100850.94;;;31.33;47.47
42125;BME280;27787;44.594;11.046;2023-07-16T12:21:30;100851.34;;;31.39;47.99
42125;BME280;27787;44.594;11.046;2023-07-16T12:24:14;100851.09;;;31.43;48.55
42125;BME280;27787;44.594;11.046;2023-07-16T12:26:58;100845.38;;;31.46;48.87
42125;BME280;27787;44.594;11.046;2023-07-16T12:29:42;100842.28;;;31.50;47.89
42125;BME280;27787;44.594;11.046;2023-07-16T12:32:27;100840.69;;;31.59;48.59
42125;BME280;27787;44.594;11.046;2023-07-16T12:35:11;100836.63;;;31.64;48.66
42125;BME280;27787;44.594;11.046;2023-07-16T12:37:55;100833.16;;;31.74;49.45
42125;BME280;27787;44.594;11.046;2023-07-16T12:40:41;100823.50;;;31.81;51.44
42125;BME280;27787;44.594;11.046;2023-07-16T12:43:26;100829.56;;;31.84;50.31
42125;BME280;27787;44.594;11.046;2023-07-16T12:46:10;100822.88;;;31.88;50.05
42125;BME280;27787;44.594;11.046;2023-07-16T12:48:54;100825.59;;;31.88;49.01
42125;BME280;27787;44.594;11.046;2023-07-16T12:51:38;100839.03;;;31.91;48.92
42125;BME280;27787;44.594;11.046;2023-07-16T12:54:22;100830.19;;;31.99;48.43
42125;BME280;27787;44.594;11.046;2023-07-16T12:57:07;100828.84;;;32.05;48.67
42125;BME280;27787;44.594;11.046;2023-07-16T12:59:52;100823.59;;;32.13;49.35
42125;BME280;27787;44.594;11.046;2023-07-16T13:02:36;100816.25;;;32.24;50.33
42125;BME280;27787;44.594;11.046;2023-07-16T13:05:20;100817.66;;;32.30;49.55
42125;BME280;27787;44.594;11.046;2023-07-16T13:08:05;100828.06;;;32.36;49.28
42125;BME280;27787;44.594;11.046;2023-07-16T13:10:49;100823.09;;;32.41;48.72
42125;BME280;27787;44.594;11.046;2023-07-16T13:13:33;100825.44;;;32.46;48.29
42125;BME280;27787;44.594;11.046;2023-07-16T13:16:19;100823.06;;;32.52;47.91
42125;BME280;27787;44.594;11.046;2023-07-16T13:19:03;100823.75;;;32.66;48.67
42125;BME280;27787;44.594;11.046;2023-07-16T13:21:47;100820.25;;;32.75;47.97
42125;BME280;27787;44.594;11.046;2023-07-16T13:24:31;100817.66;;;32.84;46.61
42125;BME280;27787;44.594;11.046;2023-07-16T13:27:23;100821.34;;;32.95;47.50
42125;BME280;27787;44.594;11.046;2023-07-16T13:30:07;100813.34;;;33.03;47.47
42125;BME280;27787;44.594;11.046;2023-07-16T13:32:52;100820.25;;;33.07;46.39
42125;BME280;27787;44.594;11.046;2023-07-16T13:35:38;100821.22;;;33.17;45.81
42125;BME280;27787;44.594;11.046;2023-07-16T13:38:22;100820.56;;;33.25;46.11
42125;BME280;27787;44.594;11.046;2023-07-16T13:41:07;100824.03;;;33.27;46.42
42125;BME280;27787;44.594;11.046;2023-07-16T13:43:51;100822.25;;;33.37;47.16
42125;BME280;27787;44.594;11.046;2023-07-16T13:46:35;100818.66;;;33.36;46.36
42125;BME280;27787;44.594;11.046;2023-07-16T13:49:21;100827.91;;;33.45;46.96
42125;BME280;27787;44.594;11.046;2023-07-16T13:52:05;100830.56;;;33.56;46.32
42125;BME280;27787;44.594;11.046;2023-07-16T13:54:50;100819.41;;;33.69;44.69
42125;BME280;27787;44.594;11.046;2023-07-16T13:57:34;100820.47;;;33.78;44.17
42125;BME280;27787;44.594;11.046;2023-07-16T14:00:18;100815.66;;;33.91;44.39
42125;BME280;27787;44.594;11.046;2023-07-16T14:03:02;100813.09;;;33.99;43.66
42125;BME280;27787;44.594;11.046;2023-07-16T14:05:47;100820.19;;;34.11;43.49
42125;BME280;27787;44.594;11.046;2023-07-16T14:08:31;100811.72;;;34.24;43.59
42125;BME280;27787;44.594;11.046;2023-07-16T14:11:17;100809.22;;;34.42;43.08
42125;BME280;27787;44.594;11.046;2023-07-16T14:14:02;100807.22;;;34.53;43.33
42125;BME280;27787;44.594;11.046;2023-07-16T14:16:46;100800.44;;;34.57;42.81
42125;BME280;27787;44.594;11.046;2023-07-16T14:19:30;100800.75;;;34.64;42.43